sensor_id;sensor_type;location;lat;lon;timestamp;P1;durP1;ratioP1;P2;durP2;ratioP2
37559;SDS011;23398;50.928;7.084;2023-09-19T00:01:14;2.08;;;1.20;;
37559;SDS011;23398;50.928;7.084;2023-09-19T00:03:40;3.58;;;1.45;;
37559;SDS011;23398;50.928;7.084;2023-09-19T00:06:07;3.20;;;1.42;;
37559;SDS011;23398;50.928;7.084;2023-09-19T00:08:33;2.53;;;1.40;;
37559;SDS011;23398;50.928;7.084;2023-09-19T00:10:59;2.90;;;1.23;;
37559;SDS011;23398;50.928;7.084;2023-09-19T00:13:34;2.92;;;1.50;;
37559;SDS011;23398;50.928;7.084;2023-09-19T00:16:01;1.88;;;1.20;;
37559;SDS011;23398;50.928;7.084;2023-09-19T00:18:32;4.15;;;1.38;;
37559;SDS011;23398;50.928;7.084;2023-09-19T00:20:59;2.05;;;1.20;;
37559;SDS011;23398;50.928;7.084;2023-09-19T00:23:25;1.90;;;1.40;;
37559;SDS011;23398;50.928;7.084;2023-09-19T00:25:51;3.25;;;1.27;;
37559;SDS011;23398;50.928;7.084;2023-09-19T00:28:17;2.25;;;1.33;;
37559;SDS011;23398;50.928;7.084;2023-09-19T00:30:45;3.15;;;1.65;;
37559;SDS011;23398;50.928;7.084;2023-09-19T00:33:14;3.00;;;1.30;;
37559;SDS011;23398;50.928;7.084;2023-09-19T00:35:48;2.85;;;1.20;;
37559;SDS011;23398;50.928;7.084;2023-09-19T00:38:14;3.47;;;1.42;;
37559;SDS011;23398;50.928;7.084;2023-09-19T00:40:45;3.10;;;1.40;;
37559;SDS011;23398;50.928;7.084;2023-09-19T00:43:11;2.40;;;1.35;;
37559;SDS011;23398;50.928;7.084;2023-09-19T00:45:36;2.05;;;1.17;;
37559;SDS011;23398;50.928;7.084;2023-09-19T00:48:07;4.32;;;1.38;;
37559;SDS011;23398;50.928;7.084;2023-09-19T00:50:34;2.83;;;1.40;;
37559;SDS011;23398;50.928;7.084;2023-09-19T00:53:01;3.58;;;1.30;;
37559;SDS011;23398;50.928;7.084;2023-09-19T00:55:32;3.03;;;1.40;;
37559;SDS011;23398;50.928;7.084;2023-09-19T00:57:59;2.85;;;1.40;;
37559;SDS011;23398;50.928;7.084;2023-09-19T01:00:26;3.95;;;1.70;;
37559;SDS011;23398;50.928;7.084;2023-09-19T01:02:52;1.70;;;1.33;;
37559;SDS011;23398;50.928;7.084;2023-09-19T01:05:17;3.55;;;1.30;;
37559;SDS011;23398;50.928;7.084;2023-09-19T01:07:43;3.42;;;1.50;;
37559;SDS011;23398;50.928;7.084;2023-09-19T01:10:13;2.90;;;1.40;;
37559;SDS011;23398;50.928;7.084;2023-09-19T01:15:40;1.73;;;1.10;;
37559;SDS011;23398;50.928;7.084;2023-09-19T01:26:46;4.35;;;1.33;;
37559;SDS011;23398;50.928;7.084;2023-09-19T01:32:05;4.50;;;1.52;;
37559;SDS011;23398;50.928;7.084;2023-09-19T01:34:45;1.80;;;1.30;;
37559;SDS011;23398;50.928;7.084;2023-09-19T01:37:12;3.03;;;1.30;;
37559;SDS011;23398;50.928;7.084;2023-09-19T01:39:39;4.90;;;1.48;;
37559;SDS011;23398;50.928;7.084;2023-09-19T01:42:09;4.30;;;1.42;;
37559;SDS011;23398;50.928;7.084;2023-09-19T01:47:19;2.42;;;1.23;;
37559;SDS011;23398;50.928;7.084;2023-09-19T01:50:17;2.40;;;1.40;;
37559;SDS011;23398;50.928;7.084;2023-09-19T01:53:26;2.63;;;1.20;;
37559;SDS011;23398;50.928;7.084;2023-09-19T01:55:58;4.95;;;1.50;;
37559;SDS011;23398;50.928;7.084;2023-09-19T02:00:52;6.18;;;1.65;;
37559;SDS011;23398;50.928;7.084;2023-09-19T02:03:20;4.80;;;1.40;;
37559;SDS011;23398;50.928;7.084;2023-09-19T02:05:51;4.18;;;1.42;;
37559;SDS011;23398;50.928;7.084;2023-09-19T02:08:18;4.40;;;1.67;;
37559;SDS011;23398;50.928;7.084;2023-09-19T02:10:45;3.22;;;1.45;;
37559;SDS011;23398;50.928;7.084;2023-09-19T02:13:17;5.13;;;1.58;;
37559;SDS011;23398;50.928;7.084;2023-09-19T02:15:44;3.22;;;1.50;;
37559;SDS011;23398;50.928;7.084;2023-09-19T02:18:10;2.80;;;1.58;;
37559;SDS011;23398;50.928;7.084;2023-09-19T02:20:39;5.05;;;1.60;;
37559;SDS011;23398;50.928;7.084;2023-09-19T02:23:05;4.40;;;1.50;;
37559;SDS011;23398;50.928;7.084;2023-09-19T02:25:31;3.03;;;1.40;;
37559;SDS011;23398;50.928;7.084;2023-09-19T02:27:57;3.08;;;1.50;;
37559;SDS011;23398;50.928;7.084;2023-09-19T02:30:24;4.15;;;1.35;;
37559;SDS011;23398;50.928;7.084;2023-09-19T02:32:53;6.90;;;1.70;;
37559;SDS011;23398;50.928;7.084;2023-09-19T02:35:18;4.15;;;1.50;;
37559;SDS011;23398;50.928;7.084;2023-09-19T02:37:47;3.47;;;1.55;;
37559;SDS011;23398;50.928;7.084;2023-09-19T02:40:13;4.20;;;1.50;;
37559;SDS011;23398;50.928;7.084;2023-09-19T02:42:53;3.38;;;1.50;;
37559;SDS011;23398;50.928;7.084;2023-09-19T02:45:19;4.13;;;1.27;;
37559;SDS011;23398;50.928;7.084;2023-09-19T02:47:48;3.60;;;1.40;;
37559;SDS011;23398;50.928;7.084;2023-09-19T02:50:14;4.18;;;1.42;;
37559;SDS011;23398;50.928;7.084;2023-09-19T02:52:44;3.83;;;1.65;;
37559;SDS011;23398;50.928;7.084;2023-09-19T02:55:14;4.32;;;1.70;;
37559;SDS011;23398;50.928;7.084;2023-09-19T02:57:49;5.40;;;1.80;;
37559;SDS011;23398;50.928;7.084;2023-09-19T03:00:17;4.78;;;1.75;;
37559;SDS011;23398;50.928;7.084;2023-09-19T03:02:49;3.05;;;1.33;;
37559;SDS011;23398;50.928;7.084;2023-09-19T03:05:17;4.72;;;1.88;;
37559;SDS011;23398;50.928;7.084;2023-09-19T03:07:44;5.55;;;1.90;;
37559;SDS011;23398;50.928;7.084;2023-09-19T03:10:12;3.47;;;1.38;;
37559;SDS011;23398;50.928;7.084;2023-09-19T03:12:41;2.80;;;1.63;;
37559;SDS011;23398;50.928;7.084;2023-09-19T03:15:07;2.13;;;1.35;;
37559;SDS011;23398;50.928;7.084;2023-09-19T03:17:33;3.92;;;1.38;;
37559;SDS011;23398;50.928;7.084;2023-09-19T03:20:00;3.67;;;1.30;;
37559;SDS011;23398;50.928;7.084;2023-09-19T03:22:28;4.18;;;1.55;;
37559;SDS011;23398;50.928;7.084;2023-09-19T03:24:54;3.03;;;1.50;;
37559;SDS011;23398;50.928;7.084;2023-09-19T03:27:20;3.20;;;1.50;;
37559;SDS011;23398;50.928;7.084;2023-09-19T03:29:46;4.68;;;1.58;;
37559;SDS011;23398;50.928;7.084;2023-09-19T03:32:12;6.80;;;1.80;;
37559;SDS011;23398;50.928;7.084;2023-09-19T03:34:38;5.60;;;1.80;;
37559;SDS011;23398;50.928;7.084;2023-09-19T03:37:08;4.28;;;1.48;;
37559;SDS011;23398;50.928;7.084;2023-09-19T03:39:34;5.13;;;1.70;;
37559;SDS011;23398;50.928;7.084;2023-09-19T03:42:01;4.72;;;1.50;;
37559;SDS011;23398;50.928;7.084;2023-09-19T03:44:29;4.30;;;1.77;;
37559;SDS011;23398;50.928;7.084;2023-09-19T03:46:55;3.85;;;1.67;;
37559;SDS011;23398;50.928;7.084;2023-09-19T03:49:21;4.43;;;1.80;;
37559;SDS011;23398;50.928;7.084;2023-09-19T03:51:47;4.40;;;1.75;;
37559;SDS011;23398;50.928;7.084;2023-09-19T03:54:12;5.85;;;1.55;;
37559;SDS011;23398;50.928;7.084;2023-09-19T03:56:38;4.97;;;1.38;;
37559;SDS011;23398;50.928;7.084;2023-09-19T03:59:04;4.68;;;1.75;;
37559;SDS011;23398;50.928;7.084;2023-09-19T04:01:29;5.13;;;1.70;;
37559;SDS011;23398;50.928;7.084;2023-09-19T04:03:57;4.80;;;2.00;;
37559;SDS011;23398;50.928;7.084;2023-09-19T04:06:23;4.13;;;1.55;;
37559;SDS011;23398;50.928;7.084;2023-09-19T04:08:49;3.85;;;1.63;;
37559;SDS011;23398;50.928;7.084;2023-09-19T04:11:15;4.35;;;1.83;;
37559;SDS011;23398;50.928;7.084;2023-09-19T04:13:40;5.78;;;1.95;;
37559;SDS011;23398;50.928;7.084;2023-09-19T04:16:06;4.90;;;1.98;;
37559;SDS011;23398;50.928;7.084;2023-09-19T04:18:35;7.60;;;2.20;;
37559;SDS011;23398;50.928;7.084;2023-09-19T04:21:03;4.22;;;1.80;;
37559;SDS011;23398;50.928;7.084;2023-09-19T04:23:30;8.38;;;2.03;;
37559;SDS011;23398;50.928;7.084;2023-09-19T04:25:56;5.28;;;2.00;;
37559;SDS011;23398;50.928;7.084;2023-09-19T04:28:22;5.43;;;1.90;;
37559;SDS011;23398;50.928;7.084;2023-09-19T04:30:49;5.82;;;2.08;;
37559;SDS011;23398;50.928;7.084;2023-09-19T04:33:14;3.78;;;1.50;;
37559;SDS011;23398;50.928;7.084;2023-09-19T04:35:40;5.80;;;1.90;;
37559;SDS011;23398;50.928;7.084;2023-09-19T04:38:07;5.80;;;1.70;;
37559;SDS011;23398;50.928;7.084;2023-09-19T04:40:33;5.43;;;2.00;;
37559;SDS011;23398;50.928;7.084;2023-09-19T04:42:59;6.35;;;1.70;;
37559;SDS011;23398;50.928;7.084;2023-09-19T04:45:25;5.57;;;1.52;;
37559;SDS011;23398;50.928;7.084;2023-09-19T04:47:52;3.47;;;1.70;;
37559;SDS011;23398;50.928;7.084;2023-09-19T04:50:18;4.13;;;1.63;;
37559;SDS011;23398;50.928;7.084;2023-09-19T04:52:48;4.28;;;1.75;;
37559;SDS011;23398;50.928;7.084;2023-09-19T04:55:15;8.35;;;1.83;;
37559;SDS011;23398;50.928;7.084;2023-09-19T04:57:45;4.95;;;1.67;;
37559;SDS011;23398;50.928;7.084;2023-09-19T05:00:16;3.10;;;1.75;;
37559;SDS011;23398;50.928;7.084;2023-09-19T05:02:44;3.85;;;1.70;;
37559;SDS011;23398;50.928;7.084;2023-09-19T05:05:10;3.45;;;1.90;;
37559;SDS011;23398;50.928;7.084;2023-09-19T05:07:37;4.00;;;1.88;;
37559;SDS011;23398;50.928;7.084;2023-09-19T05:10:04;4.47;;;1.70;;
37559;SDS011;23398;50.928;7.084;2023-09-19T05:12:34;6.10;;;2.10;;
37559;SDS011;23398;50.928;7.084;2023-09-19T05:15:01;4.28;;;1.92;;
37559;SDS011;23398;50.928;7.084;2023-09-19T05:17:27;4.30;;;1.85;;
37559;SDS011;23398;50.928;7.084;2023-09-19T05:19:53;3.38;;;1.50;;
37559;SDS011;23398;50.928;7.084;2023-09-19T05:22:19;5.35;;;1.70;;
37559;SDS011;23398;50.928;7.084;2023-09-19T05:24:44;4.32;;;2.08;;
37559;SDS011;23398;50.928;7.084;2023-09-19T05:27:13;5.85;;;1.80;;
37559;SDS011;23398;50.928;7.084;2023-09-19T05:29:42;3.38;;;1.52;;
37559;SDS011;23398;50.928;7.084;2023-09-19T05:32:09;3.95;;;1.90;;
37559;SDS011;23398;50.928;7.084;2023-09-19T05:34:35;5.15;;;1.60;;
37559;SDS011;23398;50.928;7.084;2023-09-19T05:37:01;3.58;;;1.58;;
37559;SDS011;23398;50.928;7.084;2023-09-19T05:39:27;3.35;;;1.75;;
37559;SDS011;23398;50.928;7.084;2023-09-19T05:41:52;8.07;;;1.88;;
37559;SDS011;23398;50.928;7.084;2023-09-19T05:44:18;6.68;;;1.92;;
37559;SDS011;23398;50.928;7.084;2023-09-19T05:46:44;3.92;;;1.40;;
37559;SDS011;23398;50.928;7.084;2023-09-19T05:49:11;4.53;;;1.80;;
37559;SDS011;23398;50.928;7.084;2023-09-19T05:51:36;5.30;;;1.98;;
37559;SDS011;23398;50.928;7.084;2023-09-19T05:54:02;5.85;;;1.70;;
37559;SDS011;23398;50.928;7.084;2023-09-19T05:56:29;4.63;;;1.70;;
37559;SDS011;23398;50.928;7.084;2023-09-19T05:58:55;6.05;;;1.95;;
37559;SDS011;23398;50.928;7.084;2023-09-19T06:01:21;4.10;;;1.70;;
37559;SDS011;23398;50.928;7.084;2023-09-19T06:03:47;4.03;;;1.77;;
37559;SDS011;23398;50.928;7.084;2023-09-19T06:06:13;4.38;;;1.83;;
37559;SDS011;23398;50.928;7.084;2023-09-19T06:08:39;4.40;;;1.65;;
37559;SDS011;23398;50.928;7.084;2023-09-19T06:11:05;4.05;;;1.70;;
37559;SDS011;23398;50.928;7.084;2023-09-19T06:13:34;4.40;;;1.85;;
37559;SDS011;23398;50.928;7.084;2023-09-19T06:16:00;3.35;;;1.65;;
37559;SDS011;23398;50.928;7.084;2023-09-19T06:18:30;3.92;;;1.48;;
37559;SDS011;23398;50.928;7.084;2023-09-19T06:20:58;7.28;;;2.10;;
37559;SDS011;23398;50.928;7.084;2023-09-19T06:23:24;5.15;;;1.70;;
37559;SDS011;23398;50.928;7.084;2023-09-19T06:25:52;3.67;;;1.38;;
37559;SDS011;23398;50.928;7.084;2023-09-19T06:28:21;5.10;;;1.58;;
37559;SDS011;23398;50.928;7.084;2023-09-19T06:30:50;3.80;;;1.83;;
37559;SDS011;23398;50.928;7.084;2023-09-19T06:33:16;2.60;;;1.42;;
37559;SDS011;23398;50.928;7.084;2023-09-19T06:35:43;4.18;;;1.70;;
37559;SDS011;23398;50.928;7.084;2023-09-19T06:38:09;6.30;;;1.73;;
37559;SDS011;23398;50.928;7.084;2023-09-19T06:40:38;3.80;;;1.50;;
37559;SDS011;23398;50.928;7.084;2023-09-19T06:43:03;4.03;;;1.70;;
37559;SDS011;23398;50.928;7.084;2023-09-19T06:45:30;4.95;;;1.55;;
37559;SDS011;23398;50.928;7.084;2023-09-19T06:47:57;3.67;;;1.55;;
37559;SDS011;23398;50.928;7.084;2023-09-19T06:50:23;4.65;;;1.65;;
37559;SDS011;23398;50.928;7.084;2023-09-19T06:52:52;6.15;;;1.80;;
37559;SDS011;23398;50.928;7.084;2023-09-19T06:55:20;5.53;;;1.90;;
37559;SDS011;23398;50.928;7.084;2023-09-19T06:57:48;3.60;;;1.50;;
37559;SDS011;23398;50.928;7.084;2023-09-19T07:00:14;3.60;;;1.73;;
37559;SDS011;23398;50.928;7.084;2023-09-19T07:05:26;2.63;;;1.45;;
37559;SDS011;23398;50.928;7.084;2023-09-19T07:07:52;4.65;;;1.83;;
37559;SDS011;23398;50.928;7.084;2023-09-19T07:10:20;4.20;;;1.45;;
37559;SDS011;23398;50.928;7.084;2023-09-19T07:12:53;4.00;;;1.75;;
37559;SDS011;23398;50.928;7.084;2023-09-19T07:15:22;3.78;;;1.40;;
37559;SDS011;23398;50.928;7.084;2023-09-19T07:17:49;3.67;;;1.73;;
37559;SDS011;23398;50.928;7.084;2023-09-19T07:20:16;4.78;;;1.80;;
37559;SDS011;23398;50.928;7.084;2023-09-19T07:22:42;4.43;;;1.85;;
37559;SDS011;23398;50.928;7.084;2023-09-19T07:25:08;6.38;;;2.05;;
37559;SDS011;23398;50.928;7.084;2023-09-19T07:27:33;3.38;;;1.50;;
37559;SDS011;23398;50.928;7.084;2023-09-19T07:29:59;3.85;;;1.92;;
37559;SDS011;23398;50.928;7.084;2023-09-19T07:32:24;4.40;;;1.73;;
37559;SDS011;23398;50.928;7.084;2023-09-19T07:34:50;5.43;;;1.73;;
37559;SDS011;23398;50.928;7.084;2023-09-19T07:37:16;3.45;;;1.52;;
37559;SDS011;23398;50.928;7.084;2023-09-19T07:39:41;4.05;;;2.05;;
37559;SDS011;23398;50.928;7.084;2023-09-19T07:42:08;3.38;;;1.38;;
37559;SDS011;23398;50.928;7.084;2023-09-19T07:44:35;4.10;;;1.40;;
37559;SDS011;23398;50.928;7.084;2023-09-19T07:47:01;3.90;;;1.50;;
37559;SDS011;23398;50.928;7.084;2023-09-19T07:49:28;3.88;;;1.90;;
37559;SDS011;23398;50.928;7.084;2023-09-19T07:51:54;5.07;;;2.05;;
37559;SDS011;23398;50.928;7.084;2023-09-19T07:54:19;3.75;;;1.67;;
37559;SDS011;23398;50.928;7.084;2023-09-19T07:56:46;4.65;;;1.50;;
37559;SDS011;23398;50.928;7.084;2023-09-19T07:59:11;2.92;;;1.80;;
37559;SDS011;23398;50.928;7.084;2023-09-19T08:01:38;2.33;;;1.48;;
37559;SDS011;23398;50.928;7.084;2023-09-19T08:04:06;3.20;;;1.60;;
37559;SDS011;23398;50.928;7.084;2023-09-19T08:06:32;3.30;;;1.83;;
37559;SDS011;23398;50.928;7.084;2023-09-19T08:08:58;4.22;;;1.80;;
37559;SDS011;23398;50.928;7.084;2023-09-19T08:11:25;3.33;;;1.77;;
37559;SDS011;23398;50.928;7.084;2023-09-19T08:13:51;4.45;;;2.08;;
37559;SDS011;23398;50.928;7.084;2023-09-19T08:16:17;4.53;;;1.67;;
37559;SDS011;23398;50.928;7.084;2023-09-19T08:18:48;3.92;;;1.70;;
37559;SDS011;23398;50.928;7.084;2023-09-19T08:21:19;4.03;;;1.88;;
37559;SDS011;23398;50.928;7.084;2023-09-19T08:23:46;4.72;;;1.80;;
37559;SDS011;23398;50.928;7.084;2023-09-19T08:26:11;5.88;;;2.10;;
37559;SDS011;23398;50.928;7.084;2023-09-19T08:28:37;4.15;;;1.80;;
37559;SDS011;23398;50.928;7.084;2023-09-19T08:31:06;3.70;;;1.70;;
37559;SDS011;23398;50.928;7.084;2023-09-19T08:33:33;3.80;;;1.80;;
37559;SDS011;23398;50.928;7.084;2023-09-19T08:36:01;2.40;;;1.40;;
37559;SDS011;23398;50.928;7.084;2023-09-19T08:38:31;2.42;;;1.58;;
37559;SDS011;23398;50.928;7.084;2023-09-19T08:41:04;3.83;;;1.70;;
37559;SDS011;23398;50.928;7.084;2023-09-19T08:43:34;5.93;;;1.90;;
37559;SDS011;23398;50.928;7.084;2023-09-19T08:46:07;4.00;;;1.65;;
37559;SDS011;23398;50.928;7.084;2023-09-19T08:48:34;4.30;;;1.92;;
37559;SDS011;23398;50.928;7.084;2023-09-19T08:51:10;2.97;;;1.58;;
37559;SDS011;23398;50.928;7.084;2023-09-19T08:54:02;4.13;;;1.50;;
37559;SDS011;23398;50.928;7.084;2023-09-19T08:56:31;2.75;;;1.55;;
37559;SDS011;23398;50.928;7.084;2023-09-19T08:59:02;2.42;;;1.52;;
37559;SDS011;23398;50.928;7.084;2023-09-19T09:01:29;3.50;;;1.77;;
37559;SDS011;23398;50.928;7.084;2023-09-19T09:03:57;6.28;;;1.90;;
37559;SDS011;23398;50.928;7.084;2023-09-19T09:06:24;4.53;;;2.00;;
37559;SDS011;23398;50.928;7.084;2023-09-19T09:08:51;2.20;;;1.58;;
37559;SDS011;23398;50.928;7.084;2023-09-19T09:11:17;4.32;;;2.00;;
37559;SDS011;23398;50.928;7.084;2023-09-19T09:13:46;4.32;;;1.80;;
37559;SDS011;23398;50.928;7.084;2023-09-19T09:16:13;3.15;;;1.70;;
37559;SDS011;23398;50.928;7.084;2023-09-19T09:18:43;3.05;;;1.77;;
37559;SDS011;23398;50.928;7.084;2023-09-19T09:21:10;4.25;;;1.90;;
37559;SDS011;23398;50.928;7.084;2023-09-19T09:23:36;4.00;;;1.85;;
37559;SDS011;23398;50.928;7.084;2023-09-19T09:26:02;3.10;;;1.65;;
37559;SDS011;23398;50.928;7.084;2023-09-19T09:28:28;2.67;;;1.80;;
37559;SDS011;23398;50.928;7.084;2023-09-19T09:30:56;3.47;;;1.63;;
37559;SDS011;23398;50.928;7.084;2023-09-19T09:33:27;3.60;;;1.90;;
37559;SDS011;23398;50.928;7.084;2023-09-19T09:38:24;5.53;;;1.70;;
37559;SDS011;23398;50.928;7.084;2023-09-19T09:41:10;3.53;;;1.67;;
37559;SDS011;23398;50.928;7.084;2023-09-19T09:43:40;2.53;;;1.60;;
37559;SDS011;23398;50.928;7.084;2023-09-19T09:48:55;2.88;;;1.40;;
37559;SDS011;23398;50.928;7.084;2023-09-19T09:51:41;2.47;;;1.52;;
37559;SDS011;23398;50.928;7.084;2023-09-19T09:54:14;2.20;;;1.48;;
37559;SDS011;23398;50.928;7.084;2023-09-19T09:56:53;2.20;;;1.40;;
37559;SDS011;23398;50.928;7.084;2023-09-19T09:59:28;3.08;;;1.77;;
37559;SDS011;23398;50.928;7.084;2023-09-19T10:02:11;2.65;;;1.50;;
37559;SDS011;23398;50.928;7.084;2023-09-19T10:04:38;2.08;;;1.48;;
37559;SDS011;23398;50.928;7.084;2023-09-19T10:07:26;2.72;;;1.65;;
37559;SDS011;23398;50.928;7.084;2023-09-19T10:10:03;4.60;;;1.70;;
37559;SDS011;23398;50.928;7.084;2023-09-19T10:12:37;2.55;;;1.40;;
37559;SDS011;23398;50.928;7.084;2023-09-19T10:15:06;2.30;;;1.58;;
37559;SDS011;23398;50.928;7.084;2023-09-19T10:17:35;2.20;;;1.50;;
37559;SDS011;23398;50.928;7.084;2023-09-19T10:20:02;3.30;;;1.73;;
37559;SDS011;23398;50.928;7.084;2023-09-19T10:22:44;2.45;;;1.50;;
37559;SDS011;23398;50.928;7.084;2023-09-19T10:25:22;2.78;;;1.35;;
37559;SDS011;23398;50.928;7.084;2023-09-19T10:27:50;2.65;;;1.50;;
37559;SDS011;23398;50.928;7.084;2023-09-19T10:30:18;3.67;;;1.40;;
37559;SDS011;23398;50.928;7.084;2023-09-19T10:32:45;2.60;;;1.33;;
37559;SDS011;23398;50.928;7.084;2023-09-19T10:35:12;2.47;;;1.40;;
37559;SDS011;23398;50.928;7.084;2023-09-19T10:37:39;2.95;;;1.80;;
37559;SDS011;23398;50.928;7.084;2023-09-19T10:40:09;1.77;;;1.38;;
37559;SDS011;23398;50.928;7.084;2023-09-19T10:42:40;3.80;;;1.80;;
37559;SDS011;23398;50.928;7.084;2023-09-19T10:45:08;3.08;;;1.48;;
37559;SDS011;23398;50.928;7.084;2023-09-19T10:47:38;2.25;;;1.42;;
37559;SDS011;23398;50.928;7.084;2023-09-19T10:50:05;1.63;;;1.15;;
37559;SDS011;23398;50.928;7.084;2023-09-19T10:55:07;2.53;;;1.30;;
37559;SDS011;23398;50.928;7.084;2023-09-19T10:57:34;3.05;;;1.50;;
37559;SDS011;23398;50.928;7.084;2023-09-19T11:05:40;2.42;;;1.52;;
37559;SDS011;23398;50.928;7.084;2023-09-19T11:08:10;3.10;;;1.50;;
37559;SDS011;23398;50.928;7.084;2023-09-19T11:10:49;3.35;;;1.60;;
37559;SDS011;23398;50.928;7.084;2023-09-19T11:13:29;3.47;;;1.80;;
37559;SDS011;23398;50.928;7.084;2023-09-19T11:26:44;3.35;;;1.42;;
37559;SDS011;23398;50.928;7.084;2023-09-19T11:29:29;2.33;;;1.40;;
37559;SDS011;23398;50.928;7.084;2023-09-19T11:31:56;2.80;;;1.40;;
37559;SDS011;23398;50.928;7.084;2023-09-19T11:34:37;3.50;;;1.67;;
37559;SDS011;23398;50.928;7.084;2023-09-19T11:40:07;2.42;;;1.50;;
37559;SDS011;23398;50.928;7.084;2023-09-19T11:42:48;2.70;;;1.50;;
37559;SDS011;23398;50.928;7.084;2023-09-19T11:48:23;2.75;;;1.80;;
37559;SDS011;23398;50.928;7.084;2023-09-19T11:50:52;2.13;;;1.40;;
37559;SDS011;23398;50.928;7.084;2023-09-19T11:53:18;2.47;;;1.60;;
37559;SDS011;23398;50.928;7.084;2023-09-19T11:55:45;2.15;;;1.40;;
37559;SDS011;23398;50.928;7.084;2023-09-19T11:58:20;2.25;;;1.48;;
37559;SDS011;23398;50.928;7.084;2023-09-19T12:00:46;2.10;;;1.30;;
37559;SDS011;23398;50.928;7.084;2023-09-19T12:03:23;2.47;;;1.60;;
37559;SDS011;23398;50.928;7.084;2023-09-19T12:05:55;2.50;;;1.60;;
37559;SDS011;23398;50.928;7.084;2023-09-19T12:08:22;2.72;;;1.50;;
37559;SDS011;23398;50.928;7.084;2023-09-19T12:10:48;1.98;;;1.40;;
37559;SDS011;23398;50.928;7.084;2023-09-19T12:13:19;1.60;;;1.10;;
37559;SDS011;23398;50.928;7.084;2023-09-19T12:15:45;2.25;;;1.40;;
37559;SDS011;23398;50.928;7.084;2023-09-19T12:18:28;4.53;;;1.70;;
37559;SDS011;23398;50.928;7.084;2023-09-19T12:20:54;2.67;;;1.42;;
37559;SDS011;23398;50.928;7.084;2023-09-19T12:23:20;2.80;;;1.50;;
37559;SDS011;23398;50.928;7.084;2023-09-19T12:25:46;2.25;;;1.38;;
37559;SDS011;23398;50.928;7.084;2023-09-19T12:28:13;2.20;;;1.50;;
37559;SDS011;23398;50.928;7.084;2023-09-19T12:30:46;2.03;;;1.33;;
37559;SDS011;23398;50.928;7.084;2023-09-19T12:33:18;2.67;;;1.50;;
37559;SDS011;23398;50.928;7.084;2023-09-19T12:35:46;4.40;;;1.48;;
37559;SDS011;23398;50.928;7.084;2023-09-19T12:38:22;3.00;;;1.35;;
37559;SDS011;23398;50.928;7.084;2023-09-19T12:40:49;3.47;;;1.60;;
37559;SDS011;23398;50.928;7.084;2023-09-19T12:43:16;3.35;;;1.52;;
37559;SDS011;23398;50.928;7.084;2023-09-19T12:45:43;3.25;;;1.52;;
37559;SDS011;23398;50.928;7.084;2023-09-19T12:51:08;3.85;;;1.50;;
37559;SDS011;23398;50.928;7.084;2023-09-19T12:53:42;2.40;;;1.50;;
37559;SDS011;23398;50.928;7.084;2023-09-19T12:56:09;2.58;;;1.40;;
37559;SDS011;23398;50.928;7.084;2023-09-19T13:01:26;3.05;;;1.40;;
37559;SDS011;23398;50.928;7.084;2023-09-19T13:04:10;2.97;;;1.60;;
37559;SDS011;23398;50.928;7.084;2023-09-19T13:06:45;3.42;;;1.52;;
37559;SDS011;23398;50.928;7.084;2023-09-19T13:09:14;2.92;;;1.52;;
37559;SDS011;23398;50.928;7.084;2023-09-19T13:11:45;2.70;;;1.50;;
37559;SDS011;23398;50.928;7.084;2023-09-19T13:19:42;3.20;;;1.70;;
37559;SDS011;23398;50.928;7.084;2023-09-19T13:25:20;2.08;;;1.27;;
37559;SDS011;23398;50.928;7.084;2023-09-19T13:27:53;3.65;;;1.40;;
37559;SDS011;23398;50.928;7.084;2023-09-19T13:30:24;1.92;;;1.20;;
37559;SDS011;23398;50.928;7.084;2023-09-19T13:32:51;2.65;;;1.20;;
37559;SDS011;23398;50.928;7.084;2023-09-19T13:35:18;2.15;;;1.20;;
37559;SDS011;23398;50.928;7.084;2023-09-19T13:37:45;2.13;;;1.13;;
37559;SDS011;23398;50.928;7.084;2023-09-19T13:40:16;1.98;;;1.20;;
37559;SDS011;23398;50.928;7.084;2023-09-19T13:42:42;2.28;;;1.10;;
37559;SDS011;23398;50.928;7.084;2023-09-19T13:45:08;3.17;;;1.30;;
37559;SDS011;23398;50.928;7.084;2023-09-19T13:47:39;2.20;;;0.95;;
37559;SDS011;23398;50.928;7.084;2023-09-19T13:50:05;2.20;;;1.30;;
37559;SDS011;23398;50.928;7.084;2023-09-19T13:52:31;2.97;;;1.10;;
37559;SDS011;23398;50.928;7.084;2023-09-19T13:54:57;1.98;;;1.10;;
37559;SDS011;23398;50.928;7.084;2023-09-19T13:57:24;2.28;;;1.10;;
37559;SDS011;23398;50.928;7.084;2023-09-19T13:59:51;1.90;;;1.27;;
37559;SDS011;23398;50.928;7.084;2023-09-19T14:02:17;1.70;;;1.17;;
37559;SDS011;23398;50.928;7.084;2023-09-19T14:04:47;1.65;;;1.20;;
37559;SDS011;23398;50.928;7.084;2023-09-19T14:07:14;1.83;;;1.00;;
37559;SDS011;23398;50.928;7.084;2023-09-19T14:09:40;1.80;;;1.20;;
37559;SDS011;23398;50.928;7.084;2023-09-19T14:12:06;2.08;;;1.10;;
37559;SDS011;23398;50.928;7.084;2023-09-19T14:14:32;2.40;;;1.10;;
37559;SDS011;23398;50.928;7.084;2023-09-19T14:16:57;1.55;;;1.00;;
37559;SDS011;23398;50.928;7.084;2023-09-19T14:19:26;1.52;;;1.00;;
37559;SDS011;23398;50.928;7.084;2023-09-19T14:21:52;1.63;;;0.88;;
37559;SDS011;23398;50.928;7.084;2023-09-19T14:24:20;1.58;;;1.08;;
37559;SDS011;23398;50.928;7.084;2023-09-19T14:26:47;2.70;;;1.10;;
37559;SDS011;23398;50.928;7.084;2023-09-19T14:29:13;1.70;;;1.10;;
37559;SDS011;23398;50.928;7.084;2023-09-19T14:31:39;1.63;;;1.10;;
37559;SDS011;23398;50.928;7.084;2023-09-19T14:34:05;2.53;;;1.00;;
37559;SDS011;23398;50.928;7.084;2023-09-19T14:36:31;2.22;;;1.00;;
37559;SDS011;23398;50.928;7.084;2023-09-19T14:38:57;1.73;;;1.20;;
37559;SDS011;23398;50.928;7.084;2023-09-19T14:41:23;1.55;;;0.95;;
37559;SDS011;23398;50.928;7.084;2023-09-19T14:43:50;2.00;;;1.20;;
37559;SDS011;23398;50.928;7.084;2023-09-19T14:46:20;3.35;;;1.08;;
37559;SDS011;23398;50.928;7.084;2023-09-19T14:48:46;1.52;;;1.05;;
37559;SDS011;23398;50.928;7.084;2023-09-19T14:51:12;2.83;;;1.17;;
37559;SDS011;23398;50.928;7.084;2023-09-19T14:53:38;1.83;;;1.00;;
37559;SDS011;23398;50.928;7.084;2023-09-19T14:56:06;2.30;;;1.00;;
37559;SDS011;23398;50.928;7.084;2023-09-19T14:58:33;3.05;;;1.10;;
37559;SDS011;23398;50.928;7.084;2023-09-19T15:01:12;1.50;;;0.90;;
37559;SDS011;23398;50.928;7.084;2023-09-19T15:03:39;2.20;;;0.95;;
37559;SDS011;23398;50.928;7.084;2023-09-19T15:06:06;3.42;;;0.90;;
37559;SDS011;23398;50.928;7.084;2023-09-19T15:08:34;2.50;;;1.15;;
37559;SDS011;23398;50.928;7.084;2023-09-19T15:11:03;3.55;;;1.10;;
37559;SDS011;23398;50.928;7.084;2023-09-19T15:13:34;1.52;;;0.98;;
37559;SDS011;23398;50.928;7.084;2023-09-19T15:16:03;3.17;;;1.00;;
37559;SDS011;23398;50.928;7.084;2023-09-19T15:18:30;1.35;;;0.98;;
37559;SDS011;23398;50.928;7.084;2023-09-19T15:20:56;1.92;;;0.90;;
37559;SDS011;23398;50.928;7.084;2023-09-19T15:23:25;2.05;;;1.00;;
37559;SDS011;23398;50.928;7.084;2023-09-19T15:25:50;1.35;;;1.00;;
37559;SDS011;23398;50.928;7.084;2023-09-19T15:28:16;1.33;;;0.77;;
37559;SDS011;23398;50.928;7.084;2023-09-19T15:30:42;1.33;;;0.82;;
37559;SDS011;23398;50.928;7.084;2023-09-19T15:33:08;1.98;;;0.90;;
37559;SDS011;23398;50.928;7.084;2023-09-19T15:35:34;1.52;;;0.98;;
37559;SDS011;23398;50.928;7.084;2023-09-19T15:38:01;2.80;;;0.90;;
37559;SDS011;23398;50.928;7.084;2023-09-19T15:40:27;1.90;;;1.10;;
37559;SDS011;23398;50.928;7.084;2023-09-19T15:42:54;2.60;;;1.30;;
37559;SDS011;23398;50.928;7.084;2023-09-19T15:45:21;2.85;;;1.20;;
37559;SDS011;23398;50.928;7.084;2023-09-19T15:47:47;1.65;;;1.00;;
37559;SDS011;23398;50.928;7.084;2023-09-19T15:50:12;3.90;;;1.25;;
37559;SDS011;23398;50.928;7.084;2023-09-19T15:52:41;1.60;;;0.95;;
37559;SDS011;23398;50.928;7.084;2023-09-19T15:55:07;1.90;;;1.00;;
37559;SDS011;23398;50.928;7.084;2023-09-19T15:57:34;2.47;;;1.00;;
37559;SDS011;23398;50.928;7.084;2023-09-19T16:00:04;2.97;;;1.00;;
37559;SDS011;23398;50.928;7.084;2023-09-19T16:06:01;2.75;;;1.10;;